Americus, Kansas
Current Conditions -  °F | °C
As of 1:53 PM on Wednesday 26 Nov 2014 (Local Time) from KEMP Reporting Station
Overcast Overcast  
Wind Chill: -2°   Ceiling: 3600
Heat Index:   Visibility: 10mi
Dew Point: -4°   Wind: 23mph
Humidity: 57%   Direction: 310°NW
Pressure: 30.15"   Gusts: 33mph
Location:  38.51°N, 96.26°W
Report Text: KEMP 261953Z AUTO 31020G29KT 10SM OVC036 04/M04 A3015 RMK AO2 PK WND 32032/1921 SLP219 T00391039
Loading
Personal Weather Stations






























Interactive Weather Map New forecast layout! Learn more

10-Day Weather Forecast

Advertisements
Track Severe Weather on mobile